Flight Track Log - Related Links

Times and Time Zones

All times are in EDT time to prevent confusion due to time zone crossing. See the DAL6234 flight status page for this flight to view local times or setup timezone preferences in your user account.

Time Position Orientation Groundspeed Altitude Reporting Facility
EDT Latitude Longitude Course Direction KTS MPH feet Rate Location/Type
Thu 05:00:38 PM 40.8000 -73.8500 27° Northeast 156 180 1,600  Level New York TRACON
Thu 05:01:38 PM 40.8500 -73.8167 27° Northeast 211 243 3,600 2,250 Climbing New York TRACON
Thu 05:02:38 PM 40.9167 -73.8500 339° North 262 302 6,100 2,876 Climbing New York TRACON
Thu 05:03:39 PM 40.9500 -73.9333 298° West 256 295 9,400 2,876 Climbing New York TRACON
Thu 05:04:39 PM 40.9833 -74.0167 298° West 275 316 11,900 2,041 Climbing New York TRACON
Thu 05:06:53 PM 41.0736 -74.2281 300° West 318 366 16,000 1,268 Climbing New York Center
Thu 05:07:53 PM 41.1203 -74.3322 301° West 329 379 16,000  Level New York Center
Thu 05:08:52 PM 41.1672 -74.4394 300° West 334 384 16,000 153 Level New York Center
Thu 05:09:51 PM 41.2117 -74.5439 300° West 334 384 16,300 1,000 Climbing New York Center
Thu 05:10:52 PM 41.2628 -74.6353 307° West 341 392 18,000 1,736 Climbing New York Center
Thu 05:11:52 PM 41.3219 -74.7353 308° West 346 398 19,800 1,815 Climbing New York Center
Thu 05:12:51 PM 41.3875 -74.8358 311° West 358 412 21,600 1,100 Climbing New York Center
Thu 05:13:52 PM 41.4525 -74.9394 310° West 358 412 22,000 198 Climbing New York Center
Thu 05:14:52 PM 41.5194 -75.0461 310° West 363 418 22,000  Level New York Center
Thu 05:15:52 PM 41.5844 -75.1500 310° West 363 418 22,000  Level New York Center
Thu 05:16:53 PM 41.6450 -75.2539 308° West 363 418 22,000  Level New York Center
Thu 05:17:51 PM 41.7075 -75.3611 308° West 363 418 22,000  Level New York Center
Thu 05:18:51 PM 41.7681 -75.4653 308° West 358 412 22,000  Level New York Center
Thu 05:19:51 PM 41.8306 -75.5728 308° West 358 412 22,000  Level New York Center
Thu 05:20:52 PM 41.8928 -75.6775 309° West 358 412 22,000 -150 Level New York Center
Thu 05:21:51 PM 41.9531 -75.7822 308° West 358 412 21,700 -958 Descending New York Center
Thu 05:22:51 PM 42.0128 -75.8900 307° West 358 412 20,100 -1,600 Descending New York Center
Thu 05:23:51 PM 42.0750 -75.9928 309° West 358 412 18,500 -1,488 Descending New York Center
Thu 05:24:52 PM 42.1311 -76.0922 307° West 353 406 17,100 -1,475 Descending New York Center
Thu 05:25:53 PM 42.2164 -76.1383 338° Northwest 327 376 15,500 -1,525 Descending New York Center
Thu 05:26:54 PM 42.3192 -76.1214 North 332 382 14,000 -1,239 Descending New York Center
Thu 05:28:57 PM 42.5333 -76.0978 North 352 405 11,700 -1,076 Descending Boston Center
Thu 05:29:58 PM 42.6294 -76.0864 North 342 394 10,700 -1,181 Descending Boston Center
Thu 05:31:04 PM 42.7231 -76.0947 356° North 277 319 9,200 -1,512 Descending Boston Center
Thu 05:32:05 PM 42.8000 -76.0992 358° North 278 320 7,500 -1,655 Descending Boston Center
Thu 05:33:00 PM 42.8697 -76.0722 16° North 286 329 6,000 -1,252 Descending Boston Center
Thu 05:34:00 PM 42.9417 -76.0425 17° North 265 305 5,100 -1,087 Descending Boston Center
Thu 05:35:07 PM 43.0192 -76.0272 North 241 277 3,700 -1,339 Descending Boston Center
Thu 05:36:01 PM 43.0689 -76.0358 353° North 203 234 2,400 -1,388 Descending Boston Center
Thu 05:37:08 PM 43.1117 -76.0725 328° Northwest 143 165 900 -1,343 Descending Boston Center

Login

Don't have an account? Register now (free) for customized features, flight alerts, and more!